QFA474 YMML-YSSY
Flight info
| Callsign | QFA474 |
|---|---|
| Flight time | 1h 9m |
| Altitude | 35000 |
| Route | ML H129 DOSEL Y59 RIVET |
| Aircraft | B738/M-SDE2E3FGHIRWXY/LB1 |
Departure
| Time | 2026-05-04 07:45 |
|---|---|
| Airport | Melbourne Airport (YMML) |
Arrival
| Time | 2026-05-04 08:55 |
|---|---|
| Airport | Sydney Kingsford Smith International Airport (YSSY) |
| Time | Latitude | Longitude | Altitude | Speed | Heading |
|---|---|---|---|---|---|
| 2026-05-04 07:17 | -37.66693 | 144.84997 | 400 ft | 0 kts | 262° |
| 2026-05-04 07:30 | -37.66692 | 144.85012 | 398 ft | 4 kts | 262° |
| 2026-05-04 07:30 | -37.66687 | 144.85045 | 397 ft | 4 kts | 252° |
| 2026-05-04 07:30 | -37.66676 | 144.85072 | 396 ft | 4 kts | 203° |
| 2026-05-04 07:31 | -37.66655 | 144.85073 | 398 ft | 4 kts | 172° |
| 2026-05-04 07:31 | -37.66630 | 144.85068 | 400 ft | 4 kts | 179° |
| 2026-05-04 07:33 | -37.66587 | 144.85140 | 401 ft | 0 kts | 261° |
| 2026-05-04 07:34 | -37.66587 | 144.85135 | 401 ft | 3 kts | 262° |
| 2026-05-04 07:34 | -37.66583 | 144.85084 | 400 ft | 8 kts | 298° |
| 2026-05-04 07:34 | -37.66540 | 144.85034 | 402 ft | 10 kts | 303° |
| 2026-05-04 07:35 | -37.66541 | 144.84916 | 405 ft | 13 kts | 261° |
| 2026-05-04 07:35 | -37.66544 | 144.84893 | 405 ft | 0 kts | 262° |
| 2026-05-04 07:35 | -37.66547 | 144.84867 | 401 ft | 8 kts | 263° |
| 2026-05-04 07:35 | -37.66516 | 144.84792 | 406 ft | 12 kts | 330° |
| 2026-05-04 07:36 | -37.66437 | 144.84776 | 406 ft | 7 kts | 4° |
| 2026-05-04 07:36 | -37.66421 | 144.84777 | 407 ft | 0 kts | 2° |
| 2026-05-04 07:38 | -37.66344 | 144.84024 | 409 ft | 13 kts | 274° |
| 2026-05-04 07:38 | -37.66379 | 144.83917 | 406 ft | 15 kts | 207° |
| 2026-05-04 07:38 | -37.66489 | 144.83927 | 404 ft | 18 kts | 171° |
| 2026-05-04 07:38 | -37.66613 | 144.83950 | 399 ft | 17 kts | 171° |
| 2026-05-04 07:39 | -37.66638 | 144.83955 | 397 ft | 0 kts | 171° |
| 2026-05-04 07:40 | -37.66642 | 144.83956 | 397 ft | 2 kts | 171° |
| 2026-05-04 07:40 | -37.66745 | 144.83975 | 393 ft | 26 kts | 171° |
| 2026-05-04 07:40 | -37.66935 | 144.84010 | 386 ft | 28 kts | 171° |
| 2026-05-04 07:41 | -37.67124 | 144.84046 | 380 ft | 27 kts | 171° |
| 2026-05-04 07:41 | -37.67302 | 144.84078 | 375 ft | 25 kts | 172° |
| 2026-05-04 07:41 | -37.67466 | 144.84109 | 371 ft | 23 kts | 171° |
| 2026-05-04 07:41 | -37.67627 | 144.84139 | 367 ft | 24 kts | 172° |
| 2026-05-04 07:42 | -37.67793 | 144.84171 | 363 ft | 21 kts | 171° |
| 2026-05-04 07:42 | -37.67873 | 144.84121 | 359 ft | 5 kts | 258° |
| 2026-05-04 07:42 | -37.67874 | 144.84108 | 359 ft | 0 kts | 261° |
| 2026-05-04 07:44 | -37.67875 | 144.84103 | 357 ft | 4 kts | 262° |
| 2026-05-04 07:44 | -37.67877 | 144.84016 | 357 ft | 16 kts | 286° |
| 2026-05-04 07:44 | -37.67793 | 144.83952 | 357 ft | 4 kts | 352° |
| 2026-05-04 07:44 | -37.67714 | 144.83937 | 361 ft | 29 kts | 352° |
| 2026-05-04 07:45 | -37.67283 | 144.83857 | 375 ft | 95 kts | 352° |
| 2026-05-04 07:45 | -37.66447 | 144.83703 | 480 ft | 138 kts | 351° |
| 2026-05-04 07:45 | -37.65480 | 144.83509 | 1088 ft | 144 kts | 353° |
| 2026-05-04 07:45 | -37.64466 | 144.83318 | 1759 ft | 146 kts | 349° |
| 2026-05-04 07:46 | -37.63433 | 144.83117 | 2259 ft | 164 kts | 348° |
| 2026-05-04 07:46 | -37.62214 | 144.82877 | 2452 ft | 189 kts | 347° |
| 2026-05-04 07:46 | -37.60815 | 144.82871 | 2627 ft | 220 kts | 12° |
| 2026-05-04 07:46 | -37.59447 | 144.84079 | 2815 ft | 260 kts | 37° |
| 2026-05-04 07:47 | -37.58114 | 144.85805 | 3040 ft | 288 kts | 39° |
| 2026-05-04 07:47 | -37.56703 | 144.87677 | 3469 ft | 304 kts | 39° |
| 2026-05-04 07:47 | -37.55240 | 144.89629 | 4216 ft | 307 kts | 40° |
| 2026-05-04 07:49 | -37.44363 | 145.03814 | 9524 ft | 335 kts | 40° |
| 2026-05-04 07:49 | -37.42711 | 145.05941 | 10258 ft | 341 kts | 40° |
| 2026-05-04 07:49 | -37.41049 | 145.08078 | 10963 ft | 346 kts | 40° |
| 2026-05-04 07:50 | -37.39354 | 145.10258 | 11777 ft | 349 kts | 40° |
| 2026-05-04 07:50 | -37.37632 | 145.12469 | 12522 ft | 355 kts | 40° |
| 2026-05-04 07:50 | -37.35908 | 145.14682 | 13277 ft | 361 kts | 40° |
| 2026-05-04 07:50 | -37.34130 | 145.16962 | 14044 ft | 366 kts | 40° |
| 2026-05-04 07:51 | -37.32331 | 145.19268 | 14826 ft | 369 kts | 41° |
| 2026-05-04 07:51 | -37.30544 | 145.21559 | 15636 ft | 372 kts | 41° |
| 2026-05-04 07:51 | -37.28718 | 145.23899 | 16426 ft | 376 kts | 41° |
| 2026-05-04 07:51 | -37.26869 | 145.26265 | 17180 ft | 380 kts | 41° |
| 2026-05-04 07:52 | -37.25000 | 145.28652 | 17978 ft | 383 kts | 41° |
| 2026-05-04 07:52 | -37.23148 | 145.31018 | 18700 ft | 386 kts | 41° |
| 2026-05-04 07:52 | -37.21253 | 145.33439 | 19372 ft | 390 kts | 41° |
| 2026-05-04 07:52 | -37.19334 | 145.35885 | 20051 ft | 393 kts | 40° |
| 2026-05-04 07:53 | -37.17404 | 145.38343 | 20714 ft | 396 kts | 40° |
| 2026-05-04 07:54 | -37.05540 | 145.58553 | 24804 ft | 422 kts | 47° |
| 2026-05-04 07:55 | -37.03825 | 145.61553 | 25259 ft | 425 kts | 46° |
| 2026-05-04 07:55 | -37.02091 | 145.64570 | 25703 ft | 429 kts | 46° |
| 2026-05-04 07:55 | -37.00335 | 145.67615 | 26118 ft | 432 kts | 45° |
| 2026-05-04 07:55 | -36.98564 | 145.70681 | 26566 ft | 435 kts | 45° |
| 2026-05-04 07:56 | -36.96799 | 145.73733 | 27013 ft | 438 kts | 45° |
| 2026-05-04 07:56 | -36.95002 | 145.76840 | 27446 ft | 441 kts | 45° |
| 2026-05-04 07:56 | -36.93196 | 145.79959 | 27874 ft | 444 kts | 44° |
| 2026-05-04 07:56 | -36.91383 | 145.83083 | 28377 ft | 444 kts | 44° |
| 2026-05-04 07:57 | -36.89559 | 145.86230 | 28801 ft | 447 kts | 44° |
| 2026-05-04 07:57 | -36.87747 | 145.89353 | 29114 ft | 451 kts | 44° |
| 2026-05-04 07:57 | -36.85886 | 145.92553 | 29425 ft | 456 kts | 44° |
| 2026-05-04 07:57 | -36.84007 | 145.95769 | 29823 ft | 458 kts | 43° |
| 2026-05-04 07:58 | -36.82124 | 145.98993 | 30208 ft | 461 kts | 44° |
| 2026-05-04 07:58 | -36.80262 | 146.02206 | 30500 ft | 463 kts | 44° |
| 2026-05-04 07:58 | -36.78363 | 146.05476 | 30852 ft | 463 kts | 44° |
| 2026-05-04 07:58 | -36.76480 | 146.08718 | 31381 ft | 459 kts | 44° |
| 2026-05-04 07:59 | -36.74600 | 146.11937 | 31751 ft | 460 kts | 44° |
| 2026-05-04 07:59 | -36.72696 | 146.15187 | 31960 ft | 464 kts | 44° |
| 2026-05-04 07:59 | -36.70807 | 146.18413 | 32286 ft | 465 kts | 44° |
| 2026-05-04 07:59 | -36.68900 | 146.21670 | 32736 ft | 463 kts | 44° |
| 2026-05-04 08:00 | -36.66994 | 146.24925 | 33125 ft | 463 kts | 44° |
| 2026-05-04 08:00 | -36.65109 | 146.28139 | 33453 ft | 464 kts | 44° |
| 2026-05-04 08:00 | -36.63196 | 146.31394 | 33794 ft | 465 kts | 44° |
| 2026-05-04 08:02 | -36.49641 | 146.54358 | 35029 ft | 484 kts | 45° |
| 2026-05-04 08:02 | -36.45628 | 146.61129 | 35026 ft | 493 kts | 45° |
| 2026-05-04 08:03 | -36.41533 | 146.68035 | 35024 ft | 496 kts | 45° |
| 2026-05-04 08:03 | -36.37443 | 146.74920 | 35024 ft | 497 kts | 45° |
| 2026-05-04 08:04 | -36.33327 | 146.81831 | 35014 ft | 497 kts | 45° |
| 2026-05-04 08:04 | -36.29236 | 146.88685 | 35011 ft | 495 kts | 45° |
| 2026-05-04 08:05 | -36.25138 | 146.95534 | 35025 ft | 493 kts | 45° |
| 2026-05-04 08:05 | -36.21065 | 147.02328 | 35007 ft | 491 kts | 45° |
| 2026-05-04 08:06 | -36.17006 | 147.09083 | 35025 ft | 491 kts | 44° |
| 2026-05-04 08:06 | -36.12927 | 147.15860 | 35032 ft | 489 kts | 44° |
| 2026-05-04 08:08 | -35.96646 | 147.42790 | 35035 ft | 489 kts | 44° |
| 2026-05-04 08:11 | -35.78264 | 147.72945 | 35065 ft | 488 kts | 43° |
| 2026-05-04 08:11 | -35.72128 | 147.82944 | 35071 ft | 489 kts | 43° |
| 2026-05-04 08:12 | -35.68038 | 147.89597 | 35074 ft | 489 kts | 43° |
| 2026-05-04 08:12 | -35.63912 | 147.96297 | 35070 ft | 489 kts | 43° |
| 2026-05-04 08:13 | -35.59810 | 148.02944 | 35074 ft | 490 kts | 43° |
| 2026-05-04 08:13 | -35.55674 | 148.09633 | 35081 ft | 491 kts | 43° |
| 2026-05-04 08:14 | -35.51548 | 148.16294 | 35077 ft | 491 kts | 43° |
| 2026-05-04 08:16 | -35.34911 | 148.42995 | 35070 ft | 494 kts | 43° |
| 2026-05-04 08:16 | -35.30737 | 148.49656 | 35061 ft | 494 kts | 43° |
| 2026-05-04 08:17 | -35.26541 | 148.56342 | 35076 ft | 494 kts | 43° |
| 2026-05-04 08:17 | -35.22360 | 148.62992 | 35080 ft | 494 kts | 43° |
| 2026-05-04 08:19 | -35.05531 | 148.89630 | 35050 ft | 494 kts | 43° |
| 2026-05-04 08:20 | -35.01321 | 148.96258 | 35061 ft | 493 kts | 43° |
| 2026-05-04 08:20 | -34.99250 | 148.99520 | 34837 ft | 488 kts | 43° |
| 2026-05-04 08:20 | -34.97184 | 149.02776 | 34474 ft | 480 kts | 42° |
| 2026-05-04 08:21 | -34.94916 | 149.05620 | 33971 ft | 452 kts | 24° |
| 2026-05-04 08:21 | -34.92244 | 149.07212 | 33593 ft | 417 kts | 5° |
| 2026-05-04 08:21 | -34.89454 | 149.07762 | 33255 ft | 396 kts | 355° |
| 2026-05-04 08:21 | -34.86737 | 149.07946 | 32999 ft | 384 kts | 353° |
| 2026-05-04 08:22 | -34.84093 | 149.08048 | 32808 ft | 374 kts | 353° |
| 2026-05-04 08:22 | -34.81528 | 149.08132 | 32655 ft | 363 kts | 353° |
| 2026-05-04 08:24 | -34.63411 | 149.10428 | 31291 ft | 419 kts | 25° |
| 2026-05-04 08:24 | -34.61134 | 149.12747 | 30937 ft | 433 kts | 36° |
| 2026-05-04 08:24 | -34.59181 | 149.15588 | 30540 ft | 444 kts | 47° |
| 2026-05-04 08:24 | -34.58178 | 149.17790 | 30244 ft | 453 kts | 59° |
| 2026-05-04 08:25 | -34.56862 | 149.22633 | 29634 ft | 454 kts | 66° |
| 2026-05-04 08:25 | -34.56290 | 149.25122 | 29303 ft | 452 kts | 67° |
| 2026-05-04 08:25 | -34.55220 | 149.29988 | 28710 ft | 445 kts | 67° |
| 2026-05-04 08:25 | -34.54433 | 149.33558 | 28271 ft | 440 kts | 66° |
| 2026-05-04 08:26 | -34.53889 | 149.35981 | 27957 ft | 437 kts | 66° |
| 2026-05-04 08:27 | -34.48188 | 149.60155 | 24959 ft | 420 kts | 65° |
| 2026-05-04 08:28 | -34.47374 | 149.63561 | 24535 ft | 419 kts | 65° |
| 2026-05-04 08:28 | -34.46565 | 149.66942 | 24129 ft | 417 kts | 65° |
| 2026-05-04 08:28 | -34.45754 | 149.70331 | 23693 ft | 417 kts | 65° |
| 2026-05-04 08:28 | -34.44951 | 149.73679 | 23190 ft | 415 kts | 65° |
| 2026-05-04 08:29 | -34.44145 | 149.77038 | 22746 ft | 413 kts | 66° |
| 2026-05-04 08:29 | -34.43351 | 149.80344 | 22300 ft | 411 kts | 66° |
| 2026-05-04 08:29 | -34.42558 | 149.83646 | 21878 ft | 407 kts | 66° |
| 2026-05-04 08:31 | -34.37159 | 150.05972 | 19037 ft | 385 kts | 67° |
| 2026-05-04 08:33 | -34.31996 | 150.27143 | 16188 ft | 365 kts | 68° |
| 2026-05-04 08:33 | -34.31273 | 150.30088 | 15802 ft | 363 kts | 68° |
| 2026-05-04 08:35 | -34.25392 | 150.49358 | 13277 ft | 334 kts | 53° |
| 2026-05-04 08:35 | -34.24254 | 150.51758 | 12905 ft | 332 kts | 54° |
| 2026-05-04 08:35 | -34.23122 | 150.54187 | 12520 ft | 330 kts | 54° |
| 2026-05-04 08:35 | -34.22009 | 150.56616 | 12143 ft | 328 kts | 55° |
| 2026-05-04 08:37 | -34.15620 | 150.70824 | 10279 ft | 307 kts | 55° |
| 2026-05-04 08:37 | -34.14612 | 150.73064 | 10140 ft | 299 kts | 55° |
| 2026-05-04 08:37 | -34.13638 | 150.75225 | 9996 ft | 291 kts | 55° |
| 2026-05-04 08:38 | -34.12672 | 150.77369 | 9706 ft | 290 kts | 54° |
| 2026-05-04 08:38 | -34.11707 | 150.79503 | 9417 ft | 288 kts | 54° |
| 2026-05-04 08:38 | -34.10760 | 150.81598 | 9179 ft | 284 kts | 54° |
| 2026-05-04 08:40 | -34.04418 | 150.95669 | 7503 ft | 273 kts | 55° |
| 2026-05-04 08:40 | -34.03520 | 150.97682 | 7282 ft | 272 kts | 58° |
| 2026-05-04 08:40 | -34.03099 | 150.99945 | 7029 ft | 286 kts | 88° |
| 2026-05-04 08:41 | -34.03698 | 151.02246 | 6803 ft | 295 kts | 121° |
| 2026-05-04 08:41 | -34.05049 | 151.04120 | 6599 ft | 296 kts | 133° |
| 2026-05-04 08:41 | -34.06473 | 151.05885 | 6324 ft | 298 kts | 134° |
| 2026-05-04 08:41 | -34.08039 | 151.07522 | 6059 ft | 296 kts | 153° |
| 2026-05-04 08:42 | -34.09966 | 151.08313 | 6032 ft | 290 kts | 171° |
| 2026-05-04 08:42 | -34.11917 | 151.08795 | 5988 ft | 289 kts | 172° |
| 2026-05-04 08:42 | -34.13888 | 151.09277 | 5993 ft | 289 kts | 171° |
| 2026-05-04 08:42 | -34.15867 | 151.09774 | 5986 ft | 290 kts | 171° |
| 2026-05-04 08:43 | -34.17842 | 151.10282 | 5992 ft | 290 kts | 171° |
| 2026-05-04 08:43 | -34.19819 | 151.10790 | 5992 ft | 290 kts | 171° |
| 2026-05-04 08:43 | -34.21783 | 151.11360 | 5987 ft | 289 kts | 168° |
| 2026-05-04 08:43 | -34.23682 | 151.11956 | 5937 ft | 279 kts | 168° |
| 2026-05-04 08:44 | -34.25547 | 151.12550 | 5797 ft | 271 kts | 168° |
| 2026-05-04 08:44 | -34.27356 | 151.13127 | 5656 ft | 266 kts | 168° |
| 2026-05-04 08:46 | -34.33904 | 151.21628 | 4300 ft | 190 kts | 42° |
| 2026-05-04 08:46 | -34.32895 | 151.22512 | 4149 ft | 176 kts | 23° |
| 2026-05-04 08:46 | -34.31817 | 151.23269 | 3936 ft | 179 kts | 23° |
| 2026-05-04 08:46 | -34.30741 | 151.24012 | 3747 ft | 180 kts | 23° |
| 2026-05-04 08:47 | -34.29643 | 151.24766 | 3558 ft | 180 kts | 23° |
| 2026-05-04 08:47 | -34.28544 | 151.25514 | 3362 ft | 186 kts | 22° |
| 2026-05-04 08:47 | -34.27329 | 151.26059 | 3153 ft | 186 kts | 356° |
| 2026-05-04 08:47 | -34.26073 | 151.25685 | 3064 ft | 188 kts | 342° |
| 2026-05-04 08:48 | -34.24793 | 151.25368 | 3012 ft | 192 kts | 348° |
| 2026-05-04 08:48 | -34.23474 | 151.25073 | 2986 ft | 190 kts | 347° |
| 2026-05-04 08:48 | -34.22190 | 151.24763 | 2986 ft | 189 kts | 347° |
| 2026-05-04 08:48 | -34.20888 | 151.24435 | 2996 ft | 190 kts | 346° |
| 2026-05-04 08:49 | -34.19619 | 151.24108 | 2989 ft | 187 kts | 346° |
| 2026-05-04 08:50 | -34.12024 | 151.22130 | 2994 ft | 186 kts | 347° |
| 2026-05-04 08:50 | -34.10737 | 151.21796 | 2843 ft | 190 kts | 348° |
| 2026-05-04 08:51 | -34.09468 | 151.21465 | 2615 ft | 187 kts | 347° |
| 2026-05-04 08:51 | -34.08228 | 151.21142 | 2364 ft | 176 kts | 349° |
| 2026-05-04 08:51 | -34.07093 | 151.20844 | 2165 ft | 161 kts | 348° |
| 2026-05-04 08:51 | -34.06032 | 151.20569 | 1945 ft | 149 kts | 349° |
| 2026-05-04 08:52 | -34.05039 | 151.20311 | 1783 ft | 148 kts | 349° |
| 2026-05-04 08:52 | -34.04053 | 151.20054 | 1580 ft | 144 kts | 351° |
| 2026-05-04 08:52 | -34.03090 | 151.19803 | 1398 ft | 137 kts | 350° |
| 2026-05-04 08:52 | -34.02147 | 151.19557 | 1220 ft | 139 kts | 350° |
| 2026-05-04 08:53 | -34.01185 | 151.19305 | 1021 ft | 145 kts | 349° |
| 2026-05-04 08:54 | -33.94892 | 151.17667 | 28 ft | 55 kts | 348° |
| 2026-05-04 08:55 | -33.94595 | 151.17657 | 28 ft | 33 kts | 12° |
| 2026-05-04 08:55 | -33.94452 | 151.17706 | 29 ft | 19 kts | 17° |
| 2026-05-04 08:55 | -33.94326 | 151.17730 | 29 ft | 18 kts | 351° |
| 2026-05-04 08:55 | -33.94024 | 151.17640 | 1969 ft | 195 kts | 346° |